Time;durP1;ratioP1;P1;durP2;ratioP2;P2;SDS_P1;SDS_P2;PMS_P1;PMS_P2;Temp;Humidity;BMP_temperature;BMP_pressure;BME280_temperature;BME280_humidity;BME280_pressure;Samples;Min_cycle;Max_cycle;Signal;HPM_P1;HPM_P2
2022/05/08 00:00:05;;;;;;;93.60;25.03;;;;;;;;;;4980491;28;20214;-48
2022/05/08 00:02:31;;;;;;;150.13;34.80;;;;;;;;;;4972454;28;20646;-48
2022/05/08 00:04:57;;;;;;;90.05;23.48;;;;;;;;;;4973476;28;20213;-48
2022/05/08 00:07:24;;;;;;;90.38;23.63;;;;;;;;;;4968074;28;20236;-48
2022/05/08 00:09:50;;;;;;;93.00;23.93;;;;;;;;;;4972025;28;20503;-48
2022/05/08 00:12:16;;;;;;;84.72;22.65;;;;;;;;;;4978917;28;20237;-48
2022/05/08 00:14:43;;;;;;;157.88;36.95;;;;;;;;;;4971793;28;20276;-48
2022/05/08 00:17:13;;;;;;;73.95;19.95;;;;;;;;;;4969955;28;20256;-48
2022/05/08 00:19:49;;;;;;;150.53;33.77;;;;;;;;;;4975111;28;20222;-48
2022/05/08 00:22:15;;;;;;;53.40;16.13;;;;;;;;;;4969918;28;20768;-48
2022/05/08 00:24:41;;;;;;;120.77;28.40;;;;;;;;;;4974739;28;20312;-48
2022/05/08 00:27:07;;;;;;;93.90;24.05;;;;;;;;;;4971938;28;20276;-48
2022/05/08 00:29:33;;;;;;;85.20;21.50;;;;;;;;;;4977562;28;20284;-48
2022/05/08 00:31:59;;;;;;;111.18;27.02;;;;;;;;;;4978636;28;20217;-48
2022/05/08 00:34:25;;;;;;;73.60;19.65;;;;;;;;;;4977169;28;20308;-48
2022/05/08 00:36:51;;;;;;;110.07;26.42;;;;;;;;;;4975203;28;20240;-48
2022/05/08 00:39:20;;;;;;;90.90;23.08;;;;;;;;;;4981407;28;20698;-48
2022/05/08 00:41:47;;;;;;;89.03;22.95;;;;;;;;;;4978838;28;20197;-48
2022/05/08 00:44:13;;;;;;;96.95;25.45;;;;;;;;;;4974785;28;20217;-48
2022/05/08 00:46:39;;;;;;;117.63;28.75;;;;;;;;;;4966322;28;20226;-47
2022/05/08 00:49:05;;;;;;;88.28;22.70;;;;;;;;;;4973723;28;20318;-48
2022/05/08 00:51:31;;;;;;;102.45;24.33;;;;;;;;;;4972724;28;20321;-48
2022/05/08 00:53:58;;;;;;;111.65;26.10;;;;;;;;;;4979468;28;20217;-47
2022/05/08 00:56:24;;;;;;;82.23;21.77;;;;;;;;;;4979271;28;20225;-48
2022/05/08 00:58:50;;;;;;;106.23;26.40;;;;;;;;;;4979453;28;20272;-48
2022/05/08 01:01:17;;;;;;;86.13;21.88;;;;;;;;;;4981467;28;20226;-48
2022/05/08 01:03:46;;;;;;;128.93;31.00;;;;;;;;;;4970204;28;20308;-48
2022/05/08 01:06:12;;;;;;;92.30;23.43;;;;;;;;;;4977981;28;20259;-48
2022/05/08 01:08:40;;;;;;;100.20;25.20;;;;;;;;;;4976261;28;20744;-47
2022/05/08 01:11:06;;;;;;;98.18;25.50;;;;;;;;;;4975661;28;20697;-48
2022/05/08 01:13:32;;;;;;;80.47;21.53;;;;;;;;;;4980535;28;20678;-48
2022/05/08 01:15:58;;;;;;;155.20;37.03;;;;;;;;;;4969976;28;20284;-48
2022/05/08 01:18:24;;;;;;;111.60;28.20;;;;;;;;;;4979710;28;20185;-48
2022/05/08 01:20:51;;;;;;;108.40;26.00;;;;;;;;;;4972515;28;20328;-47
2022/05/08 01:23:19;;;;;;;132.85;31.23;;;;;;;;;;4971284;28;20233;-48
2022/05/08 01:25:47;;;;;;;101.25;24.80;;;;;;;;;;4975532;28;20787;-48
2022/05/08 01:28:14;;;;;;;90.05;24.23;;;;;;;;;;4964827;28;20272;-48
2022/05/08 01:30:40;;;;;;;136.70;33.15;;;;;;;;;;4967609;28;20471;-47
2022/05/08 01:33:06;;;;;;;74.68;20.75;;;;;;;;;;4970184;28;20282;-47
2022/05/08 01:35:32;;;;;;;152.75;36.85;;;;;;;;;;4969170;28;20284;-48
2022/05/08 01:37:58;;;;;;;117.60;28.77;;;;;;;;;;4968065;28;20225;-48
2022/05/08 01:40:24;;;;;;;118.78;30.45;;;;;;;;;;4972504;28;20221;-48
2022/05/08 01:42:51;;;;;;;160.77;37.00;;;;;;;;;;4967821;28;20229;-48
2022/05/08 01:45:17;;;;;;;190.70;45.80;;;;;;;;;;4960529;28;20201;-48
2022/05/08 01:50:28;;;;;;;153.07;36.38;;;;;;;;;;4964790;28;20267;-48
2022/05/08 01:52:54;;;;;;;131.70;33.40;;;;;;;;;;4970494;28;20658;-48
2022/05/08 01:55:20;;;;;;;85.45;22.88;;;;;;;;;;4977296;28;20686;-48
2022/05/08 01:57:46;;;;;;;92.88;24.08;;;;;;;;;;4970314;28;20799;-47
2022/05/08 02:00:12;;;;;;;159.38;38.05;;;;;;;;;;4971884;28;20784;-48
2022/05/08 02:02:38;;;;;;;58.10;16.83;;;;;;;;;;4975477;28;20213;-48
2022/05/08 02:05:04;;;;;;;84.82;21.45;;;;;;;;;;4961316;28;20303;-48
2022/05/08 02:07:30;;;;;;;154.15;35.88;;;;;;;;;;4962723;28;20233;-48
2022/05/08 02:09:56;;;;;;;80.35;21.60;;;;;;;;;;4968689;28;20236;-48
2022/05/08 02:12:22;;;;;;;145.23;34.95;;;;;;;;;;4964802;28;20186;-47
2022/05/08 02:14:48;;;;;;;117.33;29.17;;;;;;;;;;4962611;28;20642;-48
2022/05/08 02:17:14;;;;;;;123.60;30.37;;;;;;;;;;4966325;28;20217;-48
2022/05/08 02:19:40;;;;;;;111.90;28.13;;;;;;;;;;4967413;28;20222;-47
2022/05/08 02:22:06;;;;;;;102.73;25.83;;;;;;;;;;4967077;28;20307;-48
2022/05/08 02:24:32;;;;;;;115.20;28.43;;;;;;;;;;4969080;28;20241;-48
2022/05/08 02:26:58;;;;;;;113.40;28.03;;;;;;;;;;4969158;28;20284;-48
2022/05/08 02:29:24;;;;;;;103.30;25.90;;;;;;;;;;4966801;28;22761;-48
2022/05/08 02:31:50;;;;;;;118.97;28.60;;;;;;;;;;4972078;28;20225;-48
2022/05/08 02:34:15;;;;;;;116.13;27.77;;;;;;;;;;4974431;28;20255;-48
2022/05/08 02:36:41;;;;;;;141.67;33.20;;;;;;;;;;4975194;28;20398;-48
2022/05/08 02:39:07;;;;;;;75.68;19.95;;;;;;;;;;4977915;28;20206;-48
2022/05/08 02:41:33;;;;;;;75.85;19.17;;;;;;;;;;4981139;28;20254;-48
2022/05/08 02:43:59;;;;;;;135.60;32.40;;;;;;;;;;4976614;28;20227;-48
2022/05/08 02:46:25;;;;;;;68.03;19.33;;;;;;;;;;4973661;28;20229;-48
2022/05/08 02:48:51;;;;;;;113.80;27.97;;;;;;;;;;4977039;28;20558;-48
2022/05/08 02:51:17;;;;;;;111.38;28.13;;;;;;;;;;4972352;28;20185;-48
2022/05/08 02:53:43;;;;;;;95.90;23.40;;;;;;;;;;4975930;28;20188;-48
2022/05/08 02:58:53;;;;;;;122.93;29.03;;;;;;;;;;4976898;28;20224;-48
2022/05/08 03:01:19;;;;;;;58.57;17.20;;;;;;;;;;4974832;28;20214;-48
2022/05/08 03:03:45;;;;;;;125.93;29.57;;;;;;;;;;4972049;28;20217;-48
2022/05/08 03:06:13;;;;;;;61.90;17.27;;;;;;;;;;4974653;28;20586;-47
2022/05/08 03:08:39;;;;;;;111.90;27.58;;;;;;;;;;4966096;28;20217;-48
2022/05/08 03:13:50;;;;;;;81.67;20.77;;;;;;;;;;4972615;28;20455;-48
2022/05/08 03:16:17;;;;;;;74.40;19.55;;;;;;;;;;4973793;28;20218;-48
2022/05/08 03:18:45;;;;;;;153.40;36.27;;;;;;;;;;4972644;28;20594;-48
2022/05/08 03:21:12;;;;;;;97.63;23.95;;;;;;;;;;4975793;28;20240;-48
2022/05/08 03:23:38;;;;;;;89.57;23.02;;;;;;;;;;4977117;28;20312;-48
2022/05/08 03:26:04;;;;;;;110.40;27.93;;;;;;;;;;4974036;28;20253;-47
2022/05/08 03:28:31;;;;;;;122.83;29.83;;;;;;;;;;4972088;28;20282;-48
2022/05/08 03:30:59;;;;;;;92.60;22.83;;;;;;;;;;4974763;28;20308;-47
2022/05/08 03:33:25;;;;;;;119.47;29.05;;;;;;;;;;4969694;28;20190;-48
2022/05/08 03:35:51;;;;;;;128.40;31.88;;;;;;;;;;4972953;28;20190;-47
2022/05/08 03:38:18;;;;;;;109.43;27.10;;;;;;;;;;4968951;28;20219;-48
2022/05/08 03:40:44;;;;;;;105.43;25.90;;;;;;;;;;4971765;28;20312;-47
2022/05/08 03:43:10;;;;;;;92.27;22.70;;;;;;;;;;4976493;28;20319;-48
2022/05/08 03:45:36;;;;;;;91.57;23.70;;;;;;;;;;4973349;28;20236;-47
2022/05/08 03:48:02;;;;;;;92.18;23.38;;;;;;;;;;4974432;28;20666;-48
2022/05/08 03:50:28;;;;;;;85.28;21.83;;;;;;;;;;4976032;28;20217;-48
2022/05/08 03:52:54;;;;;;;113.07;27.92;;;;;;;;;;4969444;28;20209;-48
2022/05/08 03:55:20;;;;;;;57.85;17.45;;;;;;;;;;4977635;28;20214;-48
2022/05/08 03:57:46;;;;;;;141.30;32.40;;;;;;;;;;4971540;28;20274;-48
2022/05/08 04:00:12;;;;;;;96.50;24.13;;;;;;;;;;4971125;28;20575;-48
2022/05/08 04:02:39;;;;;;;65.60;17.50;;;;;;;;;;4979397;28;20185;-48
2022/05/08 04:05:05;;;;;;;95.38;23.88;;;;;;;;;;4975345;28;20229;-48
2022/05/08 04:07:31;;;;;;;130.88;30.88;;;;;;;;;;4969863;28;20283;-48
2022/05/08 04:09:57;;;;;;;89.05;22.50;;;;;;;;;;4973718;28;20245;-47
2022/05/08 04:12:23;;;;;;;115.63;28.33;;;;;;;;;;4978025;28;20220;-48
2022/05/08 04:14:49;;;;;;;98.60;24.80;;;;;;;;;;4976361;28;20228;-48
2022/05/08 04:17:16;;;;;;;90.80;23.40;;;;;;;;;;4973709;28;20860;-47
2022/05/08 04:19:42;;;;;;;80.72;21.35;;;;;;;;;;4973459;28;20298;-48
2022/05/08 04:24:53;;;;;;;132.40;32.03;;;;;;;;;;4974231;28;20675;-49
2022/05/08 04:27:19;;;;;;;95.53;24.88;;;;;;;;;;4970029;28;20343;-48
2022/05/08 04:29:45;;;;;;;127.45;31.42;;;;;;;;;;4974868;28;20443;-47
2022/05/08 04:32:11;;;;;;;70.88;20.27;;;;;;;;;;4978699;28;20816;-47
2022/05/08 04:34:37;;;;;;;156.27;37.37;;;;;;;;;;4975169;28;20308;-48
2022/05/08 04:37:04;;;;;;;123.30;29.98;;;;;;;;;;4970095;28;20661;-48
2022/05/08 04:39:30;;;;;;;112.05;29.20;;;;;;;;;;4970679;28;21144;-48
2022/05/08 04:41:56;;;;;;;108.80;26.95;;;;;;;;;;4968778;28;20205;-48
2022/05/08 04:44:22;;;;;;;103.50;25.65;;;;;;;;;;4977870;28;20233;-47
2022/05/08 04:46:48;;;;;;;126.38;30.60;;;;;;;;;;4980625;28;20915;-48
2022/05/08 04:49:14;;;;;;;132.13;32.13;;;;;;;;;;4972504;28;20228;-48
2022/05/08 04:51:40;;;;;;;113.13;28.55;;;;;;;;;;4978446;28;20346;-48
2022/05/08 04:54:06;;;;;;;105.53;26.47;;;;;;;;;;4976544;28;20202;-48
2022/05/08 04:56:32;;;;;;;90.80;24.27;;;;;;;;;;4975775;28;20718;-48
2022/05/08 04:58:58;;;;;;;82.82;21.83;;;;;;;;;;4980203;28;20580;-48
2022/05/08 05:01:24;;;;;;;120.18;29.17;;;;;;;;;;4975828;28;20213;-48
2022/05/08 05:03:50;;;;;;;122.30;29.83;;;;;;;;;;4976065;28;20221;-48
2022/05/08 05:06:17;;;;;;;59.20;17.00;;;;;;;;;;4980737;28;20277;-48
2022/05/08 05:08:43;;;;;;;60.30;17.20;;;;;;;;;;4984077;28;20193;-48
2022/05/08 05:11:09;;;;;;;63.00;18.20;;;;;;;;;;4969658;28;20229;-48
2022/05/08 05:13:35;;;;;;;75.90;20.50;;;;;;;;;;4974762;28;20619;-48
2022/05/08 05:16:01;;;;;;;122.40;30.08;;;;;;;;;;4973514;28;20674;-48
2022/05/08 05:18:27;;;;;;;128.57;30.98;;;;;;;;;;4976570;28;20276;-47
2022/05/08 05:20:53;;;;;;;124.47;29.52;;;;;;;;;;4980084;28;20216;-47
2022/05/08 05:23:19;;;;;;;67.25;18.25;;;;;;;;;;4976062;28;20221;-48
2022/05/08 05:25:45;;;;;;;98.15;25.10;;;;;;;;;;4974097;28;20346;-48
2022/05/08 05:28:11;;;;;;;98.57;25.23;;;;;;;;;;4977038;28;20213;-48
2022/05/08 05:30:37;;;;;;;135.32;32.85;;;;;;;;;;4972123;28;20249;-48
2022/05/08 05:33:03;;;;;;;102.45;26.60;;;;;;;;;;4979079;28;20773;-47
2022/05/08 05:35:29;;;;;;;80.43;21.88;;;;;;;;;;4977814;28;20209;-48
2022/05/08 05:37:55;;;;;;;80.55;22.17;;;;;;;;;;4971222;28;20614;-48
2022/05/08 05:40:21;;;;;;;74.75;19.75;;;;;;;;;;4977906;28;20233;-49
2022/05/08 05:42:48;;;;;;;68.93;18.38;;;;;;;;;;4977589;28;20225;-48
2022/05/08 05:45:13;;;;;;;106.40;25.98;;;;;;;;;;4971377;28;20194;-48
2022/05/08 05:47:57;;;;;;;195.05;43.28;;;;;;;;;;4970970;28;20696;-49
2022/05/08 05:50:24;;;;;;;103.85;25.17;;;;;;;;;;4970532;28;20209;-48
2022/05/08 05:52:51;;;;;;;96.55;24.40;;;;;;;;;;4971621;28;21115;-48
2022/05/08 05:55:17;;;;;;;91.70;21.90;;;;;;;;;;4972907;28;20218;-48
2022/05/08 05:57:43;;;;;;;152.20;34.88;;;;;;;;;;4967421;28;20308;-49
2022/05/08 06:00:11;;;;;;;97.50;23.90;;;;;;;;;;4977814;28;20710;-48
2022/05/08 06:02:37;;;;;;;125.18;29.75;;;;;;;;;;4972790;28;20271;-48
2022/05/08 06:05:03;;;;;;;126.85;29.00;;;;;;;;;;4971111;28;20529;-48
2022/05/08 06:07:29;;;;;;;92.63;23.52;;;;;;;;;;4976220;28;20225;-48
2022/05/08 06:09:55;;;;;;;128.23;30.50;;;;;;;;;;4973465;28;20220;-48
2022/05/08 06:12:21;;;;;;;105.65;26.20;;;;;;;;;;4975612;28;20177;-48
2022/05/08 06:14:47;;;;;;;92.95;22.65;;;;;;;;;;4974301;28;20566;-48
2022/05/08 06:17:13;;;;;;;62.38;16.52;;;;;;;;;;4973873;28;20217;-48
2022/05/08 06:19:39;;;;;;;133.70;31.48;;;;;;;;;;4969227;28;20217;-48
2022/05/08 06:22:05;;;;;;;75.65;20.33;;;;;;;;;;4971804;28;20272;-48
2022/05/08 06:24:33;;;;;;;111.60;27.45;;;;;;;;;;4971829;28;20563;-48
2022/05/08 06:26:59;;;;;;;111.90;27.55;;;;;;;;;;4968701;28;20233;-48
2022/05/08 06:29:25;;;;;;;96.05;23.92;;;;;;;;;;4977698;28;20265;-49
2022/05/08 06:31:51;;;;;;;169.90;35.17;;;;;;;;;;4974696;28;20305;-48
2022/05/08 06:34:20;;;;;;;93.55;22.13;;;;;;;;;;4970657;28;20292;-48
2022/05/08 06:36:46;;;;;;;120.30;26.73;;;;;;;;;;4967432;28;20241;-50
2022/05/08 06:39:13;;;;;;;91.45;21.00;;;;;;;;;;4971513;28;20279;-48
2022/05/08 06:41:39;;;;;;;146.15;33.13;;;;;;;;;;4974204;28;20186;-49
2022/05/08 06:44:05;;;;;;;120.47;27.48;;;;;;;;;;4970808;28;20221;-49
2022/05/08 06:46:32;;;;;;;133.98;31.42;;;;;;;;;;4973043;28;20225;-48
2022/05/08 06:49:01;;;;;;;98.72;24.33;;;;;;;;;;4974756;28;20225;-49
2022/05/08 06:51:27;;;;;;;117.40;27.80;;;;;;;;;;4963746;28;20681;-50
2022/05/08 06:53:53;;;;;;;123.70;30.88;;;;;;;;;;4970962;28;20361;-49
2022/05/08 06:56:19;;;;;;;139.13;33.92;;;;;;;;;;4972854;28;20237;-48
2022/05/08 07:01:35;;;;;;;123.40;31.27;;;;;;;;;;4967896;28;20224;-48
2022/05/08 07:04:08;;;;;;;75.30;20.77;;;;;;;;;;4967999;28;20781;-48
2022/05/08 07:06:38;;;;;;;79.40;22.42;;;;;;;;;;4979020;28;20217;-49
2022/05/08 07:09:04;;;;;;;110.30;27.08;;;;;;;;;;4968477;28;20435;-48
2022/05/08 07:11:30;;;;;;;98.43;25.17;;;;;;;;;;4970780;28;20276;-48
2022/05/08 07:13:57;;;;;;;127.85;31.65;;;;;;;;;;4970484;28;20272;-49
2022/05/08 07:16:23;;;;;;;151.68;37.25;;;;;;;;;;4970423;28;20312;-48
2022/05/08 07:18:49;;;;;;;90.10;24.20;;;;;;;;;;4964985;28;20212;-49
2022/05/08 07:21:15;;;;;;;98.60;26.38;;;;;;;;;;4978089;28;20209;-48
2022/05/08 07:23:41;;;;;;;99.78;26.63;;;;;;;;;;4970845;28;20277;-48
2022/05/08 07:26:07;;;;;;;74.25;20.40;;;;;;;;;;4973178;28;20276;-48
2022/05/08 07:28:34;;;;;;;92.85;25.95;;;;;;;;;;4975760;28;20217;-49
2022/05/08 07:31:02;;;;;;;130.20;33.22;;;;;;;;;;4963698;28;20218;-48
2022/05/08 07:33:29;;;;;;;101.72;26.27;;;;;;;;;;4969990;28;20746;-49
2022/05/08 07:36:13;;;;;;;133.95;33.47;;;;;;;;;;4962384;28;20188;-49
2022/05/08 07:38:40;;;;;;;157.05;37.33;;;;;;;;;;4967329;28;20216;-50
2022/05/08 07:41:06;;;;;;;106.35;26.75;;;;;;;;;;4974660;28;20225;-50
2022/05/08 07:43:32;;;;;;;144.75;34.67;;;;;;;;;;4960819;28;20217;-49
2022/05/08 07:45:58;;;;;;;202.65;46.08;;;;;;;;;;4967821;28;20539;-49
2022/05/08 07:48:24;;;;;;;131.55;31.52;;;;;;;;;;4967764;28;20189;-49
2022/05/08 07:50:50;;;;;;;138.05;32.45;;;;;;;;;;4970746;28;20182;-47
2022/05/08 07:53:16;;;;;;;82.28;22.55;;;;;;;;;;4978005;28;20257;-47
2022/05/08 07:55:42;;;;;;;77.90;21.38;;;;;;;;;;4978397;28;20232;-48
2022/05/08 07:58:09;;;;;;;194.20;49.28;;;;;;;;;;4962799;28;20316;-48
2022/05/08 08:00:36;;;;;;;283.52;68.47;;;;;;;;;;4960722;28;20319;-50
2022/05/08 08:03:02;;;;;;;105.80;28.70;;;;;;;;;;4961361;28;20352;-50
2022/05/08 08:05:28;;;;;;;118.40;31.55;;;;;;;;;;4967430;28;20213;-50
2022/05/08 08:07:54;;;;;;;143.95;36.90;;;;;;;;;;4964879;28;20535;-50
2022/05/08 08:10:20;;;;;;;75.85;22.65;;;;;;;;;;4976135;28;20236;-50
2022/05/08 08:12:46;;;;;;;74.28;21.60;;;;;;;;;;4979623;28;20237;-50
2022/05/08 08:15:12;;;;;;;86.32;25.73;;;;;;;;;;4975754;28;20232;-50
2022/05/08 08:17:39;;;;;;;141.23;38.80;;;;;;;;;;4967658;28;20226;-50
2022/05/08 08:20:06;;;;;;;98.70;29.08;;;;;;;;;;4969187;28;20398;-50
2022/05/08 08:22:32;;;;;;;61.40;19.17;;;;;;;;;;4976262;28;20582;-50
2022/05/08 08:25:00;;;;;;;105.65;29.08;;;;;;;;;;4964459;28;20224;-51
2022/05/08 08:27:26;;;;;;;75.88;23.15;;;;;;;;;;4965331;28;20530;-50
2022/05/08 08:29:54;;;;;;;126.53;34.05;;;;;;;;;;4966566;28;20229;-50
2022/05/08 08:32:21;;;;;;;163.30;41.03;;;;;;;;;;4962032;28;20248;-50
2022/05/08 08:34:47;;;;;;;121.32;31.92;;;;;;;;;;4980741;28;20228;-50
2022/05/08 08:37:13;;;;;;;121.60;32.70;;;;;;;;;;4968302;28;20715;-50
2022/05/08 08:39:39;;;;;;;136.38;34.10;;;;;;;;;;4967294;28;20235;-50
2022/05/08 08:42:24;;;;;;;120.90;31.70;;;;;;;;;;4963999;28;20288;-49
2022/05/08 08:47:43;;;;;;;90.50;25.50;;;;;;;;;;4976709;28;20332;-49
2022/05/08 08:50:09;;;;;;;90.70;25.67;;;;;;;;;;4967148;28;20209;-50
2022/05/08 08:52:36;;;;;;;127.15;33.15;;;;;;;;;;4962822;28;20214;-50
2022/05/08 08:55:03;;;;;;;134.43;34.58;;;;;;;;;;4962330;28;20228;-50
2022/05/08 08:57:28;;;;;;;129.35;35.33;;;;;;;;;;4969153;28;20741;-50
2022/05/08 08:59:54;;;;;;;218.02;49.10;;;;;;;;;;4967552;28;20241;-50
2022/05/08 09:02:21;;;;;;;65.18;19.85;;;;;;;;;;4968619;28;20221;-50
2022/05/08 09:04:49;;;;;;;149.25;37.00;;;;;;;;;;4965246;28;20209;-50
2022/05/08 09:07:34;;;;;;;98.82;26.15;;;;;;;;;;4963963;28;20403;-50
2022/05/08 09:10:07;;;;;;;175.10;41.75;;;;;;;;;;4971908;28;20222;-50
2022/05/08 09:12:33;;;;;;;141.48;35.53;;;;;;;;;;4967293;28;20214;-50
2022/05/08 09:14:58;;;;;;;147.73;35.17;;;;;;;;;;4974884;28;20215;-50
2022/05/08 09:17:24;;;;;;;125.03;33.72;;;;;;;;;;4972121;28;20609;-50
2022/05/08 09:19:50;;;;;;;154.93;40.55;;;;;;;;;;4969446;28;20757;-50
2022/05/08 09:22:18;;;;;;;302.02;74.88;;;;;;;;;;4959971;28;20937;-50
2022/05/08 09:24:55;;;;;;;111.70;31.15;;;;;;;;;;4968265;28;20232;-50
2022/05/08 09:27:21;;;;;;;121.43;33.25;;;;;;;;;;4977618;28;20297;-49
2022/05/08 09:29:47;;;;;;;193.20;49.58;;;;;;;;;;4969431;28;20458;-50
2022/05/08 09:32:34;;;;;;;122.50;34.13;;;;;;;;;;4969710;28;20305;-50
2022/05/08 09:35:01;;;;;;;114.43;32.97;;;;;;;;;;4966481;28;20342;-50
2022/05/08 09:37:27;;;;;;;121.20;34.80;;;;;;;;;;4972172;28;20218;-49
2022/05/08 09:40:13;;;;;;;130.45;34.83;;;;;;;;;;4973981;28;20312;-50
2022/05/08 09:42:39;;;;;;;103.18;30.58;;;;;;;;;;4982946;28;20225;-50
2022/05/08 09:45:10;;;;;;;164.07;45.20;;;;;;;;;;4975274;28;20197;-50
2022/05/08 09:47:46;;;;;;;79.88;25.80;;;;;;;;;;4970469;28;20233;-50
2022/05/08 09:50:13;;;;;;;118.68;32.45;;;;;;;;;;4976237;28;20205;-50
2022/05/08 09:52:39;;;;;;;112.35;33.15;;;;;;;;;;4977540;28;20217;-50
2022/05/08 09:55:06;;;;;;;130.55;38.03;;;;;;;;;;4974162;28;20245;-50
2022/05/08 09:57:33;;;;;;;145.98;37.28;;;;;;;;;;4960972;28;20256;-49
2022/05/08 10:00:00;;;;;;;157.75;39.88;;;;;;;;;;4969939;28;20263;-49
2022/05/08 10:02:26;;;;;;;76.53;23.80;;;;;;;;;;4969501;28;20317;-49
2022/05/08 10:04:53;;;;;;;178.95;45.40;;;;;;;;;;4969965;28;20214;-50
2022/05/08 10:07:19;;;;;;;86.75;26.15;;;;;;;;;;4971630;28;20217;-50
2022/05/08 10:15:20;;;;;;;142.80;36.20;;;;;;;;;;4966655;28;21085;-50
2022/05/08 10:17:46;;;;;;;111.45;30.23;;;;;;;;;;4963516;28;20311;-50
2022/05/08 10:20:12;;;;;;;118.32;32.83;;;;;;;;;;4968900;28;20310;-52
2022/05/08 10:22:48;;;;;;;100.70;29.20;;;;;;;;;;4962401;28;20840;-50
2022/05/08 10:25:15;;;;;;;98.03;28.52;;;;;;;;;;4969749;28;20288;-49
2022/05/08 10:27:43;;;;;;;110.57;34.85;;;;;;;;;;4967278;28;20612;-50
2022/05/08 10:30:09;;;;;;;151.00;38.97;;;;;;;;;;4972052;28;20198;-50
2022/05/08 10:32:35;;;;;;;141.48;38.25;;;;;;;;;;4967979;28;20633;-50
2022/05/08 10:35:04;;;;;;;115.40;31.92;;;;;;;;;;4968728;28;20233;-50
2022/05/08 10:37:30;;;;;;;118.32;33.88;;;;;;;;;;4962627;28;20217;-50
2022/05/08 10:39:56;;;;;;;129.25;35.50;;;;;;;;;;4976794;28;20780;-50
2022/05/08 10:42:22;;;;;;;123.35;34.50;;;;;;;;;;4974864;28;20669;-50
2022/05/08 10:44:48;;;;;;;184.77;47.03;;;;;;;;;;4969741;28;20232;-50
2022/05/08 10:47:33;;;;;;;138.43;42.75;;;;;;;;;;4967715;28;20454;-50
2022/05/08 10:49:59;;;;;;;131.20;36.13;;;;;;;;;;4962679;28;20205;-50
2022/05/08 10:52:25;;;;;;;96.15;30.17;;;;;;;;;;4968840;28;20275;-50
2022/05/08 10:54:57;;;;;;;122.70;35.35;;;;;;;;;;4970972;28;20722;-50
2022/05/08 10:57:29;;;;;;;89.65;31.08;;;;;;;;;;4978616;28;20201;-50
2022/05/08 10:59:55;;;;;;;119.82;38.35;;;;;;;;;;4968255;28;20540;-50
2022/05/08 11:02:40;;;;;;;118.88;37.85;;;;;;;;;;4958973;28;20220;-50
2022/05/08 11:05:07;;;;;;;112.50;37.65;;;;;;;;;;4972771;28;20236;-50
2022/05/08 11:07:33;;;;;;;115.82;34.22;;;;;;;;;;4968718;28;20324;-50
2022/05/08 11:09:59;;;;;;;229.60;58.35;;;;;;;;;;4966395;28;20320;-50
2022/05/08 11:12:25;;;;;;;120.68;37.80;;;;;;;;;;4967125;28;20174;-50
2022/05/08 11:14:51;;;;;;;143.20;41.78;;;;;;;;;;4966245;28;20694;-50
2022/05/08 11:17:19;;;;;;;150.43;46.63;;;;;;;;;;4964643;28;20647;-50
2022/05/08 11:19:51;;;;;;;138.68;42.70;;;;;;;;;;4969546;28;20700;-50
2022/05/08 11:22:17;;;;;;;92.40;32.80;;;;;;;;;;4963999;28;20480;-50
2022/05/08 11:24:47;;;;;;;162.00;51.03;;;;;;;;;;4966701;28;20279;-50
2022/05/08 11:27:13;;;;;;;91.13;33.10;;;;;;;;;;4968372;28;20209;-50
2022/05/08 11:29:46;;;;;;;163.30;53.20;;;;;;;;;;4971556;28;20987;-49
2022/05/08 11:38:03;;;;;;;168.30;52.03;;;;;;;;;;4964101;28;20232;-49
2022/05/08 11:40:30;;;;;;;169.70;54.70;;;;;;;;;;4969759;28;20213;-49
2022/05/08 11:42:56;;;;;;;153.05;46.67;;;;;;;;;;4968014;28;20209;-49
2022/05/08 11:45:22;;;;;;;124.30;39.67;;;;;;;;;;4965109;28;20638;-50
2022/05/08 11:47:53;;;;;;;132.00;39.80;;;;;;;;;;4960036;28;20436;-49
2022/05/08 11:50:19;;;;;;;107.88;36.65;;;;;;;;;;4969959;28;20217;-49
2022/05/08 11:52:45;;;;;;;203.32;61.45;;;;;;;;;;4963898;28;20232;-49
2022/05/08 11:55:11;;;;;;;138.48;43.85;;;;;;;;;;4968985;28;20482;-49
2022/05/08 11:57:41;;;;;;;89.38;30.17;;;;;;;;;;4961291;28;20328;-49
2022/05/08 12:00:10;;;;;;;141.18;43.60;;;;;;;;;;4958202;28;20319;-50
2022/05/08 12:02:40;;;;;;;171.00;54.33;;;;;;;;;;4955230;28;20225;-49
2022/05/08 12:05:06;;;;;;;152.38;48.70;;;;;;;;;;4971517;28;20217;-50
2022/05/08 12:07:39;;;;;;;146.98;46.72;;;;;;;;;;4972702;28;20213;-49
2022/05/08 12:10:05;;;;;;;183.02;58.17;;;;;;;;;;4971858;28;20213;-49
2022/05/08 12:12:33;;;;;;;125.38;43.13;;;;;;;;;;4964073;28;20189;-49
2022/05/08 12:15:20;;;;;;;241.55;72.15;;;;;;;;;;4960092;28;20225;-50
2022/05/08 12:17:49;;;;;;;147.35;47.42;;;;;;;;;;4968690;28;20353;-50
2022/05/08 12:20:28;;;;;;;152.45;46.65;;;;;;;;;;4966164;28;20742;-50
2022/05/08 12:23:05;;;;;;;193.88;60.33;;;;;;;;;;4966822;28;20304;-49
2022/05/08 12:25:31;;;;;;;90.47;34.25;;;;;;;;;;4963573;28;20217;-49
2022/05/08 12:27:57;;;;;;;154.93;51.97;;;;;;;;;;4971774;28;20229;-50
2022/05/08 12:30:23;;;;;;;125.53;42.22;;;;;;;;;;4967207;28;20209;-50
2022/05/08 12:32:49;;;;;;;83.03;32.03;;;;;;;;;;4969367;28;20370;-49
2022/05/08 12:35:15;;;;;;;177.13;57.42;;;;;;;;;;4966561;28;20217;-50
2022/05/08 12:37:41;;;;;;;108.35;39.42;;;;;;;;;;4963520;28;20714;-50
2022/05/08 12:40:08;;;;;;;170.48;58.25;;;;;;;;;;4968351;28;23515;-49
2022/05/08 12:42:34;;;;;;;99.55;38.53;;;;;;;;;;4971179;28;20300;-50
2022/05/08 12:45:00;;;;;;;180.52;63.03;;;;;;;;;;4962519;28;20189;-50
2022/05/08 12:47:26;;;;;;;168.48;58.38;;;;;;;;;;4960096;28;20217;-50
2022/05/08 12:49:53;;;;;;;142.25;51.05;;;;;;;;;;4963338;28;21428;-50
2022/05/08 12:52:19;;;;;;;169.00;60.40;;;;;;;;;;4966459;28;20224;-50
2022/05/08 12:54:45;;;;;;;146.75;49.63;;;;;;;;;;4961195;28;20304;-50
2022/05/08 12:57:11;;;;;;;104.70;34.65;;;;;;;;;;4971925;28;20263;-49
2022/05/08 12:59:47;;;;;;;157.05;49.50;;;;;;;;;;4973677;28;20650;-49
2022/05/08 13:02:19;;;;;;;214.77;67.55;;;;;;;;;;4963285;28;20209;-49
2022/05/08 13:04:47;;;;;;;118.47;39.95;;;;;;;;;;4962219;28;20214;-50
2022/05/08 13:07:13;;;;;;;139.40;45.33;;;;;;;;;;4969408;28;20555;-50
2022/05/08 13:09:39;;;;;;;114.80;38.42;;;;;;;;;;4971811;28;20494;-49
2022/05/08 13:12:06;;;;;;;164.57;55.03;;;;;;;;;;4972607;28;20186;-49
2022/05/08 13:14:32;;;;;;;108.80;37.95;;;;;;;;;;4972923;28;20305;-50
2022/05/08 13:16:59;;;;;;;134.32;44.42;;;;;;;;;;4970945;28;20221;-50
2022/05/08 13:19:27;;;;;;;124.68;43.20;;;;;;;;;;4970902;28;23030;-49
2022/05/08 13:21:53;;;;;;;175.77;52.08;;;;;;;;;;4958255;28;20221;-49
2022/05/08 13:24:19;;;;;;;95.00;32.72;;;;;;;;;;4971862;28;20684;-49
2022/05/08 13:26:46;;;;;;;144.63;45.40;;;;;;;;;;4976632;28;20752;-49
2022/05/08 13:29:12;;;;;;;98.63;34.50;;;;;;;;;;4975625;28;20225;-50
2022/05/08 13:31:41;;;;;;;100.93;35.72;;;;;;;;;;4973746;28;20221;-49
2022/05/08 13:34:07;;;;;;;154.07;50.60;;;;;;;;;;4966084;28;20217;-49
2022/05/08 13:36:33;;;;;;;174.13;60.88;;;;;;;;;;4970444;28;20222;-49
2022/05/08 13:38:59;;;;;;;215.90;69.80;;;;;;;;;;4962877;28;20185;-49
2022/05/08 13:41:25;;;;;;;136.35;50.45;;;;;;;;;;4955911;28;20296;-49
2022/05/08 13:43:51;;;;;;;145.77;52.33;;;;;;;;;;4974910;28;20221;-50
2022/05/08 13:46:17;;;;;;;134.27;47.92;;;;;;;;;;4969197;28;20618;-50
2022/05/08 13:48:44;;;;;;;128.85;52.85;;;;;;;;;;4963251;28;20217;-49
2022/05/08 13:51:11;;;;;;;158.23;65.30;;;;;;;;;;4959810;28;20562;-49
2022/05/08 13:53:38;;;;;;;106.13;42.70;;;;;;;;;;4968811;28;20681;-49
2022/05/08 13:56:04;;;;;;;158.52;55.00;;;;;;;;;;4969676;28;20229;-49
2022/05/08 13:58:31;;;;;;;95.88;43.42;;;;;;;;;;4967062;28;20241;-49
2022/05/08 14:00:57;;;;;;;211.38;79.30;;;;;;;;;;4974615;28;20836;-49
2022/05/08 14:03:23;;;;;;;122.82;54.30;;;;;;;;;;4961647;28;20202;-50
2022/05/08 14:05:49;;;;;;;120.60;57.33;;;;;;;;;;4969997;28;20656;-50
2022/05/08 14:08:16;;;;;;;133.05;60.20;;;;;;;;;;4974152;28;20771;-50
2022/05/08 14:10:42;;;;;;;175.52;67.28;;;;;;;;;;4966030;28;20268;-50
2022/05/08 14:13:08;;;;;;;143.13;48.42;;;;;;;;;;4952334;28;20257;-49
2022/05/08 14:15:35;;;;;;;186.57;65.97;;;;;;;;;;4963457;28;20308;-50
2022/05/08 14:18:01;;;;;;;240.35;76.57;;;;;;;;;;4955607;28;20193;-49
2022/05/08 14:20:27;;;;;;;181.63;62.08;;;;;;;;;;4942661;28;20225;-49
2022/05/08 14:22:54;;;;;;;128.73;54.03;;;;;;;;;;4963138;28;20217;-50
2022/05/08 14:25:20;;;;;;;79.53;46.45;;;;;;;;;;4972843;28;20245;-49
2022/05/08 14:27:46;;;;;;;137.98;57.33;;;;;;;;;;4968911;28;20933;-49
2022/05/08 14:30:12;;;;;;;178.90;66.63;;;;;;;;;;4960489;28;20995;-50
2022/05/08 14:38:13;;;;;;;162.45;129.60;;;;;;;;;;4961143;28;20225;-50
2022/05/08 14:40:39;;;;;;;158.63;141.02;;;;;;;;;;4974917;28;20409;-50